SAS4184 ENZV-ENBR
Flight info
| Callsign | SAS4184 |
|---|---|
| Flight time | 0h 24m |
| Altitude | 16000 |
| Route | ALUVA |
| Aircraft | E195/M-SDE3GILORVW/S |
Departure
| Time | 2026-04-22 15:40 |
|---|---|
| Airport | Stavanger Airport, Sola (ENZV) |
Arrival
| Time | 2026-04-22 16:04 |
|---|---|
| Airport | Bergen Airport, Flesland (ENBR) |
| Time | Latitude | Longitude | Altitude | Speed | Heading |
|---|---|---|---|---|---|
| 2026-04-22 15:19 | 58.88241 | 5.63103 | 27 ft | 0 kts | 255° |
| 2026-04-22 15:28 | 58.88245 | 5.63129 | 27 ft | 2 kts | 255° |
| 2026-04-22 15:28 | 58.88250 | 5.63160 | 27 ft | 2 kts | 255° |
| 2026-04-22 15:28 | 58.88254 | 5.63191 | 27 ft | 2 kts | 255° |
| 2026-04-22 15:29 | 58.88258 | 5.63222 | 27 ft | 2 kts | 255° |
| 2026-04-22 15:29 | 58.88263 | 5.63253 | 27 ft | 2 kts | 242° |
| 2026-04-22 15:29 | 58.88275 | 5.63273 | 27 ft | 2 kts | 180° |
| 2026-04-22 15:30 | 58.88284 | 5.63272 | 27 ft | 0 kts | 166° |
| 2026-04-22 15:31 | 58.88282 | 5.63273 | 27 ft | 1 kts | 166° |
| 2026-04-22 15:32 | 58.88273 | 5.63279 | 27 ft | 1 kts | 156° |
| 2026-04-22 15:32 | 58.88271 | 5.63301 | 27 ft | 3 kts | 95° |
| 2026-04-22 15:32 | 58.88277 | 5.63380 | 27 ft | 7 kts | 92° |
| 2026-04-22 15:32 | 58.88240 | 5.63430 | 27 ft | 7 kts | 173° |
| 2026-04-22 15:33 | 58.88183 | 5.63431 | 28 ft | 9 kts | 179° |
| 2026-04-22 15:33 | 58.88115 | 5.63434 | 28 ft | 10 kts | 179° |
| 2026-04-22 15:33 | 58.88039 | 5.63434 | 29 ft | 12 kts | 184° |
| 2026-04-22 15:33 | 58.87957 | 5.63377 | 30 ft | 13 kts | 203° |
| 2026-04-22 15:34 | 58.87876 | 5.63311 | 30 ft | 11 kts | 202° |
| 2026-04-22 15:34 | 58.87797 | 5.63290 | 31 ft | 12 kts | 179° |
| 2026-04-22 15:34 | 58.87709 | 5.63294 | 31 ft | 14 kts | 179° |
| 2026-04-22 15:34 | 58.87605 | 5.63295 | 31 ft | 16 kts | 179° |
| 2026-04-22 15:35 | 58.87529 | 5.63298 | 31 ft | 17 kts | 179° |
| 2026-04-22 15:35 | 58.87367 | 5.63303 | 33 ft | 18 kts | 179° |
| 2026-04-22 15:35 | 58.87241 | 5.63305 | 34 ft | 17 kts | 179° |
| 2026-04-22 15:35 | 58.87125 | 5.63310 | 36 ft | 9 kts | 179° |
| 2026-04-22 15:36 | 58.87057 | 5.63318 | 34 ft | 11 kts | 165° |
| 2026-04-22 15:36 | 58.86989 | 5.63393 | 37 ft | 12 kts | 145° |
| 2026-04-22 15:36 | 58.86954 | 5.63491 | 37 ft | 6 kts | 105° |
| 2026-04-22 15:36 | 58.86952 | 5.63532 | 37 ft | 3 kts | 89° |
| 2026-04-22 15:37 | 58.86952 | 5.63584 | 37 ft | 3 kts | 89° |
| 2026-04-22 15:37 | 58.86952 | 5.63599 | 37 ft | 0 kts | 89° |
| 2026-04-22 15:38 | 58.86953 | 5.63610 | 35 ft | 2 kts | 89° |
| 2026-04-22 15:39 | 58.86953 | 5.63659 | 37 ft | 5 kts | 89° |
| 2026-04-22 15:39 | 58.86958 | 5.63757 | 36 ft | 9 kts | 72° |
| 2026-04-22 15:39 | 58.87004 | 5.63803 | 34 ft | 2 kts | 360° |
| 2026-04-22 15:40 | 58.87014 | 5.63803 | 34 ft | 10 kts | 360° |
| 2026-04-22 15:40 | 58.87351 | 5.63792 | 36 ft | 86 kts | 358° |
| 2026-04-22 15:40 | 58.88182 | 5.63778 | 56 ft | 149 kts | 356° |
| 2026-04-22 15:40 | 58.89300 | 5.63801 | 716 ft | 169 kts | 357° |
| 2026-04-22 15:41 | 58.90525 | 5.63767 | 1511 ft | 182 kts | 356° |
| 2026-04-22 15:41 | 58.91832 | 5.63636 | 2175 ft | 195 kts | 356° |
| 2026-04-22 15:41 | 58.93243 | 5.63538 | 2919 ft | 209 kts | 359° |
| 2026-04-22 15:41 | 58.94727 | 5.63539 | 3707 ft | 225 kts | 358° |
| 2026-04-22 15:42 | 58.96355 | 5.63510 | 4439 ft | 241 kts | 358° |
| 2026-04-22 15:42 | 58.98057 | 5.63454 | 5431 ft | 246 kts | 358° |
| 2026-04-22 15:42 | 58.99780 | 5.63408 | 6416 ft | 251 kts | 358° |
| 2026-04-22 15:42 | 59.01552 | 5.63360 | 7335 ft | 256 kts | 358° |
| 2026-04-22 15:43 | 59.03361 | 5.63304 | 8194 ft | 261 kts | 358° |
| 2026-04-22 15:43 | 59.05141 | 5.62751 | 8990 ft | 266 kts | 337° |
| 2026-04-22 15:43 | 59.06621 | 5.60605 | 9848 ft | 271 kts | 311° |
| 2026-04-22 15:43 | 59.07557 | 5.57373 | 10645 ft | 282 kts | 291° |
| 2026-04-22 15:44 | 59.07851 | 5.53452 | 11080 ft | 303 kts | 274° |
| 2026-04-22 15:44 | 59.07859 | 5.49270 | 11806 ft | 311 kts | 272° |
| 2026-04-22 15:44 | 59.07844 | 5.45036 | 12701 ft | 315 kts | 272° |
| 2026-04-22 15:44 | 59.07838 | 5.40754 | 13663 ft | 318 kts | 272° |
| 2026-04-22 15:45 | 59.07820 | 5.36489 | 14612 ft | 321 kts | 271° |
| 2026-04-22 15:45 | 59.07783 | 5.32099 | 15447 ft | 328 kts | 271° |
| 2026-04-22 15:45 | 59.07718 | 5.27603 | 16246 ft | 337 kts | 270° |
| 2026-04-22 15:45 | 59.07606 | 5.22989 | 16494 ft | 353 kts | 268° |
| 2026-04-22 15:46 | 59.07422 | 5.18179 | 16500 ft | 365 kts | 267° |
| 2026-04-22 15:46 | 59.07211 | 5.13216 | 16508 ft | 371 kts | 267° |
| 2026-04-22 15:46 | 59.07012 | 5.08204 | 16424 ft | 372 kts | 269° |
| 2026-04-22 15:46 | 59.07271 | 5.03219 | 16444 ft | 369 kts | 288° |
| 2026-04-22 15:47 | 59.08418 | 4.98781 | 16437 ft | 367 kts | 308° |
| 2026-04-22 15:47 | 59.10276 | 4.95412 | 16440 ft | 366 kts | 327° |
| 2026-04-22 15:47 | 59.12584 | 4.93467 | 16443 ft | 367 kts | 346° |
| 2026-04-22 15:47 | 59.15136 | 4.93133 | 16453 ft | 369 kts | 2° |
| 2026-04-22 15:48 | 59.17679 | 4.93533 | 16427 ft | 369 kts | 4° |
| 2026-04-22 15:48 | 59.20252 | 4.93964 | 16413 ft | 370 kts | 4° |
| 2026-04-22 15:48 | 59.22814 | 4.94369 | 16424 ft | 369 kts | 4° |
| 2026-04-22 15:48 | 59.25381 | 4.94781 | 16427 ft | 370 kts | 4° |
| 2026-04-22 15:49 | 59.27943 | 4.95200 | 16427 ft | 370 kts | 4° |
| 2026-04-22 15:49 | 59.30516 | 4.95607 | 16428 ft | 370 kts | 4° |
| 2026-04-22 15:49 | 59.33054 | 4.96015 | 16427 ft | 370 kts | 4° |
| 2026-04-22 15:49 | 59.35641 | 4.96433 | 16434 ft | 371 kts | 4° |
| 2026-04-22 15:50 | 59.38202 | 4.96847 | 16425 ft | 371 kts | 4° |
| 2026-04-22 15:50 | 59.40778 | 4.96907 | 16442 ft | 370 kts | 356° |
| 2026-04-22 15:50 | 59.43360 | 4.96458 | 16418 ft | 370 kts | 354° |
| 2026-04-22 15:50 | 59.45928 | 4.95978 | 16427 ft | 371 kts | 354° |
| 2026-04-22 15:51 | 59.48495 | 4.95530 | 16426 ft | 371 kts | 354° |
| 2026-04-22 15:51 | 59.51072 | 4.95082 | 16427 ft | 372 kts | 354° |
| 2026-04-22 15:51 | 59.53620 | 4.94642 | 16420 ft | 372 kts | 354° |
| 2026-04-22 15:51 | 59.56210 | 4.94201 | 16428 ft | 372 kts | 354° |
| 2026-04-22 15:52 | 59.58791 | 4.93758 | 16349 ft | 368 kts | 354° |
| 2026-04-22 15:52 | 59.61302 | 4.93327 | 16039 ft | 355 kts | 354° |
| 2026-04-22 15:52 | 59.63663 | 4.92513 | 15772 ft | 342 kts | 344° |
| 2026-04-22 15:52 | 59.65931 | 4.91137 | 15262 ft | 339 kts | 341° |
| 2026-04-22 15:53 | 59.68182 | 4.89855 | 14790 ft | 333 kts | 348° |
| 2026-04-22 15:53 | 59.69693 | 4.89411 | 14492 ft | 330 kts | 352° |
| 2026-04-22 15:53 | 59.72686 | 4.88715 | 13909 ft | 322 kts | 352° |
| 2026-04-22 15:53 | 59.74896 | 4.88200 | 13516 ft | 317 kts | 352° |
| 2026-04-22 15:54 | 59.76344 | 4.87865 | 13233 ft | 313 kts | 352° |
| 2026-04-22 15:54 | 59.78490 | 4.87364 | 12827 ft | 307 kts | 352° |
| 2026-04-22 15:54 | 59.80602 | 4.87245 | 12429 ft | 302 kts | 7° |
| 2026-04-22 15:54 | 59.82564 | 4.88691 | 11744 ft | 309 kts | 31° |
| 2026-04-22 15:55 | 59.84165 | 4.91563 | 11440 ft | 304 kts | 43° |
| 2026-04-22 15:55 | 59.85591 | 4.94475 | 11277 ft | 292 kts | 42° |
| 2026-04-22 15:55 | 59.86998 | 4.97330 | 11077 ft | 285 kts | 42° |
| 2026-04-22 15:55 | 59.88380 | 5.00161 | 10871 ft | 284 kts | 42° |
| 2026-04-22 15:56 | 59.89827 | 5.02847 | 10684 ft | 283 kts | 33° |
| 2026-04-22 15:56 | 59.91407 | 5.05111 | 10488 ft | 282 kts | 32° |
| 2026-04-22 15:56 | 59.93008 | 5.07390 | 10134 ft | 281 kts | 32° |
| 2026-04-22 15:56 | 59.94599 | 5.09683 | 9652 ft | 281 kts | 32° |
| 2026-04-22 15:57 | 59.96183 | 5.11971 | 9175 ft | 280 kts | 32° |
| 2026-04-22 15:57 | 59.97759 | 5.14252 | 8711 ft | 277 kts | 32° |
| 2026-04-22 15:57 | 59.99264 | 5.16439 | 8250 ft | 263 kts | 32° |
| 2026-04-22 15:57 | 60.00708 | 5.18549 | 7764 ft | 253 kts | 32° |
| 2026-04-22 15:58 | 60.02112 | 5.20596 | 7259 ft | 245 kts | 32° |
| 2026-04-22 15:58 | 60.03462 | 5.22524 | 6770 ft | 237 kts | 28° |
| 2026-04-22 15:58 | 60.04907 | 5.23997 | 6251 ft | 230 kts | 22° |
| 2026-04-22 15:58 | 60.06166 | 5.25180 | 5800 ft | 226 kts | 22° |
| 2026-04-22 15:59 | 60.07593 | 5.26449 | 5298 ft | 222 kts | 17° |
| 2026-04-22 15:59 | 60.09049 | 5.27375 | 4783 ft | 215 kts | 15° |
| 2026-04-22 15:59 | 60.10434 | 5.28179 | 4287 ft | 203 kts | 3° |
| 2026-04-22 15:59 | 60.11796 | 5.27770 | 3772 ft | 195 kts | 345° |
| 2026-04-22 16:00 | 60.13096 | 5.27148 | 3262 ft | 189 kts | 351° |
| 2026-04-22 16:00 | 60.14374 | 5.26835 | 3020 ft | 181 kts | 352° |
| 2026-04-22 16:00 | 60.15604 | 5.26431 | 2774 ft | 176 kts | 349° |
| 2026-04-22 16:00 | 60.16788 | 5.25999 | 2542 ft | 173 kts | 351° |
| 2026-04-22 16:01 | 60.17967 | 5.25630 | 2304 ft | 170 kts | 351° |
| 2026-04-22 16:01 | 60.19087 | 5.25255 | 2078 ft | 155 kts | 351° |
| 2026-04-22 16:01 | 60.20099 | 5.24916 | 1872 ft | 139 kts | 351° |
| 2026-04-22 16:01 | 60.20997 | 5.24611 | 1709 ft | 122 kts | 349° |
| 2026-04-22 16:02 | 60.21793 | 5.24342 | 1535 ft | 112 kts | 350° |
| 2026-04-22 16:02 | 60.22544 | 5.24089 | 1353 ft | 108 kts | 349° |
| 2026-04-22 16:02 | 60.23292 | 5.23830 | 1196 ft | 109 kts | 349° |
| 2026-04-22 16:02 | 60.24046 | 5.23581 | 1041 ft | 110 kts | 348° |
| 2026-04-22 16:03 | 60.24825 | 5.23327 | 886 ft | 116 kts | 348° |
| 2026-04-22 16:03 | 60.25634 | 5.23059 | 722 ft | 118 kts | 347° |
| 2026-04-22 16:03 | 60.26442 | 5.22792 | 564 ft | 118 kts | 346° |
| 2026-04-22 16:03 | 60.27252 | 5.22519 | 398 ft | 118 kts | 346° |
| 2026-04-22 16:04 | 60.28064 | 5.22248 | 232 ft | 119 kts | 346° |
| 2026-04-22 16:04 | 60.28860 | 5.21966 | 163 ft | 103 kts | 351° |
| 2026-04-22 16:04 | 60.29401 | 5.21797 | 152 ft | 56 kts | 350° |
| 2026-04-22 16:04 | 60.29622 | 5.21722 | 145 ft | 18 kts | 351° |
| 2026-04-22 16:05 | 60.29705 | 5.21754 | 145 ft | 12 kts | 56° |
| 2026-04-22 16:05 | 60.29721 | 5.21912 | 147 ft | 11 kts | 81° |
| 2026-04-22 16:05 | 60.29722 | 5.21980 | 147 ft | 1 kts | 95° |
| 2026-04-22 16:05 | 60.29724 | 5.21995 | 148 ft | 2 kts | 77° |
| 2026-04-22 16:06 | 60.29729 | 5.22081 | 147 ft | 10 kts | 97° |
| 2026-04-22 16:06 | 60.29686 | 5.22141 | 149 ft | 8 kts | 168° |
| 2026-04-22 16:06 | 60.29628 | 5.22160 | 150 ft | 9 kts | 171° |
| 2026-04-22 16:06 | 60.29565 | 5.22181 | 151 ft | 9 kts | 171° |
| 2026-04-22 16:07 | 60.29506 | 5.22199 | 154 ft | 8 kts | 171° |
| 2026-04-22 16:07 | 60.29460 | 5.22215 | 157 ft | 6 kts | 170° |
| 2026-04-22 16:07 | 60.29421 | 5.22228 | 160 ft | 6 kts | 170° |
| 2026-04-22 16:07 | 60.29378 | 5.22243 | 163 ft | 7 kts | 170° |
| 2026-04-22 16:08 | 60.29324 | 5.22262 | 166 ft | 9 kts | 170° |
| 2026-04-22 16:08 | 60.29254 | 5.22288 | 171 ft | 11 kts | 169° |
| 2026-04-22 16:08 | 60.29173 | 5.22317 | 176 ft | 13 kts | 170° |
| 2026-04-22 16:08 | 60.29077 | 5.22348 | 176 ft | 16 kts | 171° |
| 2026-04-22 16:09 | 60.28956 | 5.22387 | 174 ft | 19 kts | 171° |
| 2026-04-22 16:09 | 60.28815 | 5.22435 | 173 ft | 20 kts | 169° |
| 2026-04-22 16:09 | 60.28707 | 5.22473 | 171 ft | 11 kts | 173° |
| 2026-04-22 16:09 | 60.28670 | 5.22569 | 170 ft | 11 kts | 84° |
| 2026-04-22 16:10 | 60.28685 | 5.22730 | 171 ft | 12 kts | 75° |
| 2026-04-22 16:10 | 60.28696 | 5.22856 | 174 ft | 6 kts | 81° |
| 2026-04-22 16:10 | 60.28701 | 5.22914 | 175 ft | 1 kts | 80° |
| 2026-04-22 16:10 | 60.28701 | 5.22917 | 175 ft | 0 kts | 80° |